Time;durP1;ratioP1;P1;durP2;ratioP2;P2;SDS_P1;SDS_P2;PMS_P1;PMS_P2;Temp;Humidity;BMP_temperature;BMP_pressure;BME280_temperature;BME280_humidity;BME280_pressure;Samples;Min_cycle;Max_cycle;Signal;HPM_P1;HPM_P2
2021/12/05 00:21:08;;;;;;;9.05;4.40;;;;;;;6.47;68.16;98600.00;5014895;28;20054;-70
2021/12/05 00:23:40;;;;;;;10.35;3.85;;;;;;;6.38;67.73;98607.50;5080354;28;20073;-69
2021/12/05 00:26:12;;;;;;;10.90;3.65;;;;;;;6.41;68.09;98598.56;5077700;28;20048;-69
2021/12/05 00:31:47;;;;;;;11.10;4.25;;;;;;;6.26;68.66;98606.28;5081800;28;20394;-69
2021/12/05 00:56:31;;;;;;;7.40;4.18;;;;;;;6.01;69.67;98618.25;5074589;28;20059;-69
2021/12/05 01:04:47;;;;;;;10.77;4.20;;;;;;;5.93;68.94;98625.38;5073848;28;20107;-69
2021/12/05 01:10:10;;;;;;;11.40;4.07;;;;;;;5.96;69.29;98632.22;5053918;28;20048;-69
2021/12/05 01:12:44;;;;;;;10.20;3.85;;;;;;;5.94;68.85;98632.50;5074269;28;20052;-69
2021/12/05 01:15:17;;;;;;;12.05;3.75;;;;;;;5.85;69.01;98623.44;5060567;28;20049;-69
2021/12/05 01:17:59;;;;;;;8.57;4.38;;;;;;;5.83;69.33;98629.28;5069094;28;20532;-69
2021/12/05 01:20:29;;;;;;;15.98;4.93;;;;;;;5.85;69.53;98640.03;5073376;28;20045;-69
2021/12/05 01:23:01;;;;;;;9.52;4.28;;;;;;;5.86;69.44;98641.66;5055154;28;20049;-69
2021/12/05 01:25:35;;;;;;;11.25;4.68;;;;;;;5.70;70.07;98655.97;5055235;28;20049;-69
2021/12/05 01:28:14;;;;;;;10.02;4.35;;;;;;;5.80;69.97;98645.72;5060022;28;20049;-69
2021/12/05 01:30:51;;;;;;;12.10;4.77;;;;;;;5.72;69.82;98655.66;5063713;28;20068;-69
2021/12/05 01:33:26;;;;;;;10.18;4.05;;;;;;;5.65;70.04;98652.56;5059833;28;20501;-69
2021/12/05 01:36:08;;;;;;;11.80;4.18;;;;;;;5.73;69.66;98653.69;5065123;28;20504;-69
2021/12/05 01:38:55;;;;;;;9.98;3.80;;;;;;;5.71;69.99;98642.97;5061768;28;20868;-69
2021/12/05 01:41:59;;;;;;;8.60;4.45;;;;;;;5.80;69.19;98654.03;5059976;28;20048;-69
2021/12/05 01:44:57;;;;;;;12.10;4.18;;;;;;;5.78;69.80;98650.78;5062176;28;20055;-69
2021/12/05 01:48:01;;;;;;;13.45;5.07;;;;;;;5.78;70.21;98650.78;5061270;28;20052;-69
2021/12/05 01:51:14;;;;;;;13.48;4.43;;;;;;;5.77;70.25;98651.91;5061157;28;20053;-69
2021/12/05 01:59:17;;;;;;;11.13;4.00;;;;;;;5.92;69.68;98648.59;5041140;28;20067;-69
2021/12/05 02:02:15;;;;;;;10.00;3.88;;;;;;;5.87;69.98;98652.34;5065561;28;20053;-69
2021/12/05 02:16:17;;;;;;;9.43;3.25;;;;;;;6.06;69.18;98651.22;5062706;28;20507;-69
2021/12/05 02:30:11;;;;;;;9.38;2.42;;;;;;;5.95;69.51;98633.38;5055637;28;20057;-69
2021/12/05 02:38:51;;;;;;;7.93;2.90;;;;;;;5.92;68.77;98634.78;5048841;28;20053;-69
2021/12/05 02:41:20;;;;;;;5.85;1.90;;;;;;;6.06;68.64;98640.97;5069174;28;20075;-69
2021/12/05 02:43:55;;;;;;;12.07;2.70;;;;;;;5.90;69.34;98639.88;5068537;28;20455;-69
2021/12/05 02:46:25;;;;;;;9.63;2.50;;;;;;;5.95;69.47;98634.19;5059483;28;20041;-69
2021/12/05 02:48:55;;;;;;;8.63;2.20;;;;;;;6.09;69.31;98637.56;5053061;28;20064;-69
2021/12/05 02:51:24;;;;;;;;;;;;;;;6.03;68.67;98636.09;5068649;28;20060;-69
2021/12/05 02:54:03;;;;;;;5.68;2.15;;;;;;;6.02;68.43;98634.47;5061522;28;19920;-69
2021/12/05 02:56:33;;;;;;;9.65;2.65;;;;;;;6.02;69.15;98633.66;5053919;28;20052;-69
2021/12/05 02:59:07;;;;;;;10.77;2.45;;;;;;;5.99;68.68;98632.38;5059095;28;20048;-70
2021/12/05 03:01:39;;;;;;;11.63;2.70;;;;;;;6.06;68.69;98629.91;5069733;28;20052;-69
2021/12/05 03:04:08;;;;;;;6.82;2.63;;;;;;;6.06;68.49;98634.63;5064095;28;20061;-69
2021/12/05 03:06:48;;;;;;;7.93;2.40;;;;;;;6.12;68.57;98629.75;5064091;28;20510;-69
2021/12/05 03:09:17;;;;;;;;;;;;;;;6.12;67.80;98627.78;5064912;28;20044;-69
2021/12/05 03:11:45;;;;;;;6.05;2.40;;;;;;;6.06;68.60;98629.91;5062222;28;20380;-69
2021/12/05 03:14:13;;;;;;;6.35;2.30;;;;;;;6.06;68.95;98637.41;5059120;28;20056;-69
2021/12/05 03:16:42;;;;;;;8.80;2.60;;;;;;;6.02;69.16;98637.22;5061499;28;20521;-70
2021/12/05 03:19:11;;;;;;;8.70;2.33;;;;;;;6.07;68.17;98645.38;5051077;28;20049;-70
2021/12/05 03:21:40;;;;;;;7.13;2.50;;;;;;;6.10;68.46;98630.88;5060645;28;20048;-70
2021/12/05 03:24:08;;;;;;;7.05;2.45;;;;;;;5.99;68.56;98640.66;5057236;28;20781;-70
2021/12/05 03:26:41;;;;;;;7.43;2.40;;;;;;;6.10;68.41;98641.13;5060308;28;20051;-70
2021/12/05 03:29:11;;;;;;;6.18;2.42;;;;;;;6.22;68.07;98637.69;5060405;28;20052;-70
2021/12/05 03:31:41;;;;;;;;;;;;;;;6.06;67.76;98640.16;5060405;28;20071;-70
2021/12/05 03:34:12;;;;;;;6.40;2.20;;;;;;;5.91;68.85;98638.72;5061839;28;19921;-70
2021/12/05 03:36:42;;;;;;;6.22;2.08;;;;;;;5.83;69.18;98631.25;5059859;28;20044;-70
2021/12/05 03:39:10;;;;;;;7.35;2.13;;;;;;;5.97;68.13;98637.44;5056392;28;20820;-70
2021/12/05 03:41:41;;;;;;;6.80;2.42;;;;;;;5.97;68.70;98623.59;5060332;28;20064;-70
2021/12/05 03:44:11;;;;;;;8.68;2.38;;;;;;;5.96;68.98;98629.47;5054448;28;20040;-70
2021/12/05 03:46:40;;;;;;;7.70;2.60;;;;;;;5.94;68.37;98629.75;5062411;28;20057;-70
2021/12/05 03:49:10;;;;;;;6.43;2.80;;;;;;;5.94;68.54;98634.47;5059676;28;20057;-70
2021/12/05 03:51:43;;;;;;;9.77;2.50;;;;;;;5.87;68.51;98634.97;5056174;28;20509;-70
2021/12/05 03:54:11;;;;;;;6.40;2.20;;;;;;;5.94;68.36;98638.03;5059535;28;20409;-70
2021/12/05 03:56:40;;;;;;;7.60;2.58;;;;;;;5.86;68.25;98636.13;5057963;28;20422;-70
2021/12/05 03:59:10;;;;;;;9.88;2.38;;;;;;;5.70;69.05;98639.38;5060249;28;20053;-70
2021/12/05 04:01:38;;;;;;;7.05;2.47;;;;;;;5.74;68.94;98636.00;5063455;28;20059;-70
2021/12/05 04:04:06;;;;;;;8.20;2.40;;;;;;;5.70;68.89;98644.09;5060067;28;20401;-70
2021/12/05 04:06:34;;;;;;;6.30;2.50;;;;;;;5.60;69.37;98659.06;5058140;28;20049;-70
2021/12/05 04:09:06;;;;;;;8.85;2.50;;;;;;;5.63;68.81;98649.31;5058153;28;20393;-70
2021/12/05 04:11:38;;;;;;;5.93;2.45;;;;;;;5.61;68.98;98646.06;5061154;28;20049;-70
2021/12/05 04:14:11;;;;;;;6.85;2.35;;;;;;;5.63;69.22;98638.28;5053723;28;20048;-70
2021/12/05 04:16:40;;;;;;;11.20;2.45;;;;;;;5.61;68.74;98646.06;5066290;28;20048;-70
2021/12/05 04:19:07;;;;;;;8.45;2.33;;;;;;;5.73;68.97;98637.09;5057077;28;20429;-70
2021/12/05 04:21:37;;;;;;;6.85;1.85;;;;;;;5.68;69.13;98638.09;5067177;28;20497;-70
2021/12/05 04:24:08;;;;;;;7.45;2.10;;;;;;;5.64;69.18;98626.88;5061730;28;20052;-70
2021/12/05 04:26:36;;;;;;;11.63;2.70;;;;;;;5.62;69.34;98626.41;5062160;28;20049;-70
2021/12/05 04:29:05;;;;;;;8.07;2.58;;;;;;;5.55;69.71;98625.28;5058864;28;20059;-70
2021/12/05 04:31:36;;;;;;;9.48;2.03;;;;;;;5.61;69.13;98624.78;5059744;28;20049;-70
2021/12/05 04:34:03;;;;;;;4.32;1.65;;;;;;;5.59;68.96;98632.59;5057685;28;20048;-70
2021/12/05 04:36:31;;;;;;;7.38;2.42;;;;;;;5.64;68.56;98626.88;5065319;28;20052;-70
2021/12/05 04:38:59;;;;;;;7.95;2.00;;;;;;;5.38;69.56;98626.13;5060069;28;20421;-70
2021/12/05 04:41:26;;;;;;;8.70;2.63;;;;;;;5.48;69.20;98625.75;5063544;28;20409;-70
2021/12/05 04:43:54;;;;;;;6.32;1.73;;;;;;;5.54;68.87;98629.97;5060847;28;20045;-70
2021/12/05 04:46:25;;;;;;;4.50;1.65;;;;;;;5.43;69.43;98635.03;5055948;28;20437;-70
2021/12/05 04:48:56;;;;;;;7.70;2.03;;;;;;;5.54;68.70;98635.50;5062344;28;20059;-70
2021/12/05 04:51:25;;;;;;;4.93;1.90;;;;;;;5.56;68.56;98627.69;5070029;28;20044;-70
2021/12/05 04:53:53;;;;;;;4.07;1.70;;;;;;;5.37;69.79;98641.03;5062179;28;20052;-70
2021/12/05 04:56:21;;;;;;;8.10;2.15;;;;;;;5.59;68.48;98643.63;5062083;28;20055;-70
2021/12/05 04:58:48;;;;;;;6.07;1.65;;;;;;;5.72;68.39;98646.56;5062200;28;20072;-70
2021/12/05 05:01:16;;;;;;;4.03;1.48;;;;;;;5.74;68.06;98641.50;5062650;28;20143;-70
2021/12/05 05:03:43;;;;;;;7.95;2.03;;;;;;;5.69;68.36;98640.53;5069355;28;20172;-70
2021/12/05 05:06:14;;;;;;;6.97;2.28;;;;;;;5.84;67.18;98644.75;5067085;28;20053;-70
2021/12/05 05:08:45;;;;;;;7.07;1.70;;;;;;;5.83;67.42;98637.56;5055375;28;20056;-70
2021/12/05 05:11:15;;;;;;;6.43;2.03;;;;;;;5.92;67.29;98640.31;5072097;28;20485;-70
2021/12/05 05:13:44;;;;;;;7.95;2.15;;;;;;;5.94;67.56;98632.50;5061802;28;20053;-70
2021/12/05 05:16:14;;;;;;;5.70;2.40;;;;;;;5.92;66.83;98643.09;5061010;28;20045;-70
2021/12/05 05:18:46;;;;;;;6.75;1.90;;;;;;;5.74;67.71;98633.22;5063271;28;20059;-70
2021/12/05 05:21:28;;;;;;;8.88;2.00;;;;;;;5.94;66.35;98638.03;5061328;28;20485;-70
2021/12/05 05:24:20;;;;;;;8.15;2.60;;;;;;;5.87;66.55;98654.31;5066384;28;20485;-70
2021/12/05 05:27:02;;;;;;;5.82;1.73;;;;;;;6.01;66.20;98646.69;5064205;28;20059;-70
2021/12/05 05:43:35;;;;;;;7.78;2.08;;;;;;;5.94;65.10;98660.13;5043074;28;20049;-70
2021/12/05 05:46:08;;;;;;;10.07;2.75;;;;;;;5.78;65.05;98661.81;5060952;28;20053;-70
2021/12/05 05:48:41;;;;;;;6.88;1.73;;;;;;;5.78;65.86;98662.63;5053751;28;20486;-70
2021/12/05 05:51:14;;;;;;;6.88;1.70;;;;;;;5.92;64.78;98656.91;5054237;28;20056;-70
2021/12/05 05:53:46;;;;;;;6.72;1.90;;;;;;;5.77;65.65;98654.66;5068080;28;20053;-70
2021/12/05 05:56:15;;;;;;;6.13;1.70;;;;;;;5.89;65.00;98655.59;5053832;28;20406;-70
2021/12/05 05:58:47;;;;;;;8.63;2.45;;;;;;;5.78;65.23;98659.06;5055273;28;20399;-70
2021/12/05 06:01:20;;;;;;;5.80;1.92;;;;;;;5.79;64.84;98657.91;5054238;28;20517;-70
2021/12/05 06:03:49;;;;;;;5.55;2.00;;;;;;;5.78;65.26;98672.88;5060799;28;20059;-70
2021/12/05 06:06:17;;;;;;;8.73;1.95;;;;;;;5.55;65.29;98670.28;5064965;28;20451;-70
2021/12/05 06:08:47;;;;;;;5.95;1.30;;;;;;;5.61;64.79;98674.50;5059968;28;20056;-70
2021/12/05 06:11:17;;;;;;;6.13;1.50;;;;;;;5.52;65.28;98672.88;5053396;28;20056;-70
2021/12/05 06:13:45;;;;;;;6.88;2.03;;;;;;;5.54;65.43;98668.63;5053187;28;20049;-70
2021/12/05 06:16:15;;;;;;;4.70;1.50;;;;;;;5.44;65.89;98674.50;5053920;28;20044;-70
2021/12/05 06:18:42;;;;;;;5.07;1.20;;;;;;;5.32;65.90;98682.63;5054472;28;20060;-70
2021/12/05 06:21:11;;;;;;;9.05;1.73;;;;;;;5.36;65.21;98673.38;5057670;28;20422;-70
2021/12/05 06:23:39;;;;;;;6.20;1.55;;;;;;;5.38;65.38;98664.75;5061590;28;20059;-70
2021/12/05 06:26:13;;;;;;;4.47;1.50;;;;;;;5.26;65.96;98677.25;5058506;28;20437;-70
2021/12/05 06:28:41;;;;;;;7.07;1.55;;;;;;;5.25;65.28;98683.09;5054749;28;20052;-70
2021/12/05 06:31:20;;;;;;;5.93;1.48;;;;;;;5.16;65.64;98685.84;5065577;28;20408;-70
2021/12/05 06:36:57;;;;;;;6.97;1.50;;;;;;;5.13;65.96;98680.97;5072485;28;20055;-70
2021/12/05 06:39:39;;;;;;;4.45;1.50;;;;;;;5.12;65.77;98693.13;5065622;28;20053;-70
2021/12/05 06:42:23;;;;;;;7.82;1.65;;;;;;;5.13;66.26;98697.53;5053357;28;20068;-70
2021/12/05 06:47:36;;;;;;;5.85;1.60;;;;;;;5.03;66.16;98706.09;5058566;28;20540;-70
2021/12/05 06:50:04;;;;;;;5.85;1.52;;;;;;;5.02;66.10;98702.53;5053213;28;20059;-69
2021/12/05 06:52:31;;;;;;;6.82;1.70;;;;;;;4.91;66.68;98716.94;5060575;28;20045;-69
2021/12/05 06:54:58;;;;;;;6.28;1.40;;;;;;;4.99;66.32;98718.91;5052441;28;20064;-70
2021/12/05 06:57:27;;;;;;;6.60;1.52;;;;;;;5.02;66.26;98708.06;5061677;28;20044;-70
2021/12/05 06:59:55;;;;;;;7.43;1.60;;;;;;;4.96;66.27;98719.56;5065387;28;20048;-70
2021/12/05 07:02:23;;;;;;;5.68;1.40;;;;;;;4.86;66.69;98727.00;5070188;28;20060;-69
2021/12/05 07:05:04;;;;;;;6.95;1.73;;;;;;;4.88;66.72;98726.69;5067114;28;20056;-69
2021/12/05 07:07:36;;;;;;;4.57;1.45;;;;;;;5.04;65.91;98743.59;5065191;28;20059;-69
2021/12/05 07:10:05;;;;;;;6.82;1.98;;;;;;;5.08;65.86;98742.66;5065534;28;20508;-70
2021/12/05 07:15:33;;;;;;;5.47;1.20;;;;;;;5.13;66.06;98755.50;5046431;28;20397;-69
2021/12/05 07:21:00;;;;;;;7.85;1.80;;;;;;;5.29;65.62;98762.19;5058944;28;20063;-69
2021/12/05 07:23:43;;;;;;;6.50;1.33;;;;;;;5.35;65.57;98754.53;5058484;28;20363;-69
2021/12/05 07:26:14;;;;;;;4.00;1.20;;;;;;;5.27;65.65;98753.41;5061123;28;20051;-69
2021/12/05 07:42:33;;;;;;;5.65;1.58;;;;;;;5.38;65.17;98753.13;5064649;28;20413;-70
2021/12/05 07:45:03;;;;;;;4.15;1.40;;;;;;;5.31;65.40;98755.53;5052050;28;20053;-70
2021/12/05 07:47:32;;;;;;;4.75;1.60;;;;;;;5.39;65.19;98763.00;5051534;28;20056;-70
2021/12/05 07:50:06;;;;;;;4.53;1.50;;;;;;;5.41;65.65;98766.25;5064528;28;20044;-70
2021/12/05 07:52:34;;;;;;;7.55;2.28;;;;;;;5.63;65.42;98765.34;5065138;28;20071;-69
2021/12/05 07:55:10;;;;;;;6.32;1.60;;;;;;;5.66;64.90;98773.75;5065200;28;20519;-70
2021/12/05 07:57:51;;;;;;;6.15;1.83;;;;;;;5.69;64.06;98795.22;5072254;28;20055;-70
2021/12/05 08:00:27;;;;;;;6.82;1.88;;;;;;;5.66;64.56;98786.75;5070395;28;20052;-70
2021/12/05 08:16:46;;;;;;;4.55;1.60;;;;;;;6.30;62.38;98777.84;5056356;28;20067;-69
2021/12/05 08:19:14;;;;;;;5.90;1.83;;;;;;;6.19;62.69;98768.25;5055684;28;20492;-69
2021/12/05 08:21:42;;;;;;;4.50;1.42;;;;;;;6.36;62.54;98775.72;5068760;28;20417;-68
2021/12/05 08:24:10;;;;;;;2.55;1.15;;;;;;;6.32;61.88;98781.09;5067525;28;20417;-69
2021/12/05 08:26:38;;;;;;;5.50;1.73;;;;;;;6.56;61.11;98785.28;5060199;28;20059;-69
2021/12/05 08:29:13;;;;;;;7.05;1.67;;;;;;;6.76;60.72;98784.59;5070020;28;20378;-69
2021/12/05 08:32:06;;;;;;;2.92;1.63;;;;;;;7.48;58.90;98785.53;5067077;28;20056;-69
2021/12/05 08:34:57;;;;;;;8.23;1.80;;;;;;;7.42;57.75;98786.06;5058972;28;20057;-70
2021/12/05 08:40:43;;;;;;;3.85;1.50;;;;;;;7.53;58.69;98795.59;5061329;28;20063;-69
2021/12/05 08:43:39;;;;;;;5.45;1.60;;;;;;;7.63;58.56;98795.22;5063998;28;20048;-69
2021/12/05 09:08:26;;;;;;;3.67;1.50;;;;;;;7.93;57.74;98800.72;5056296;28;20048;-69
2021/12/05 09:19:35;;;;;;;5.78;1.40;;;;;;;7.01;60.91;98823.53;5071840;28;20411;-69
2021/12/05 09:31:20;;;;;;;4.43;1.52;;;;;;;7.10;60.71;98843.72;5057830;28;20057;-69
2021/12/05 09:39:50;;;;;;;4.00;1.42;;;;;;;7.44;59.44;98853.03;5058468;28;20072;-68
2021/12/05 10:01:26;;;;;;;3.75;1.35;;;;;;;10.81;49.32;98878.50;5078284;28;20060;-69
2021/12/05 10:07:40;;;;;;;3.47;1.40;;;;;;;9.32;52.46;98890.16;5050240;28;20500;-69
2021/12/05 10:10:22;;;;;;;4.80;1.35;;;;;;;9.28;52.51;98892.00;5066199;28;20048;-69
2021/12/05 10:13:04;;;;;;;4.25;1.50;;;;;;;9.13;53.02;98893.47;5053834;28;20057;-69
2021/12/05 10:15:50;;;;;;;3.83;1.50;;;;;;;8.92;54.16;98899.94;5057029;28;20056;-69
2021/12/05 10:38:06;;;;;;;2.83;1.48;;;;;;;7.83;58.12;98914.75;5042966;28;20053;-68
2021/12/05 10:40:41;;;;;;;2.17;1.23;;;;;;;8.08;56.60;98912.97;5053041;28;20057;-68
2021/12/05 10:43:14;;;;;;;3.72;1.42;;;;;;;8.09;57.50;98915.41;5053279;28;20055;-69
2021/12/05 10:45:47;;;;;;;3.63;1.38;;;;;;;7.87;57.14;98921.25;5059310;28;20061;-69
2021/12/05 10:48:23;;;;;;;3.65;1.10;;;;;;;8.28;55.56;98919.69;5053430;28;20049;-69
2021/12/05 10:50:55;;;;;;;1.63;1.13;;;;;;;8.05;57.08;98922.78;5064261;28;20064;-69
2021/12/05 10:53:44;;;;;;;2.75;1.15;;;;;;;8.24;55.92;98914.00;5071138;28;20075;-69
2021/12/05 10:56:15;;;;;;;3.90;1.40;;;;;;;8.47;56.06;98916.50;5068663;28;20052;-69
2021/12/05 10:58:50;;;;;;;3.05;1.17;;;;;;;8.57;56.02;98918.03;5061298;28;20048;-69
2021/12/05 11:01:22;;;;;;;3.67;1.40;;;;;;;8.41;56.31;98921.41;5072797;28;20052;-69
2021/12/05 11:03:55;;;;;;;3.03;1.17;;;;;;;8.52;55.58;98917.09;5056288;28;20494;-69
2021/12/05 11:06:27;;;;;;;3.33;1.20;;;;;;;8.19;55.48;98916.16;5053004;28;20481;-69
2021/12/05 11:09:01;;;;;;;2.45;1.10;;;;;;;8.68;55.69;98924.81;5053377;28;20477;-67
2021/12/05 11:11:29;;;;;;;2.03;1.10;;;;;;;8.78;55.12;98921.63;5063679;28;20045;-68
2021/12/05 11:13:58;;;;;;;2.78;1.27;;;;;;;9.01;54.58;98929.56;5057440;28;20481;-68
2021/12/05 11:16:37;;;;;;;2.88;1.40;;;;;;;9.14;54.05;98926.47;5063965;28;20052;-68
2021/12/05 11:19:11;;;;;;;1.92;1.00;;;;;;;9.32;53.02;98929.91;5061777;28;20473;-69
2021/12/05 11:21:46;;;;;;;3.00;1.25;;;;;;;9.50;52.70;98930.50;5056047;28;20055;-66
2021/12/05 11:24:19;;;;;;;4.80;1.38;;;;;;;10.88;49.71;98920.50;5072126;28;20053;-66
2021/12/05 11:27:02;;;;;;;3.03;1.30;;;;;;;11.62;47.19;98928.44;5055211;28;20486;-66
2021/12/05 11:29:51;;;;;;;2.28;1.20;;;;;;;11.04;48.57;98931.66;5053036;28;20060;-66
2021/12/05 11:32:28;;;;;;;3.47;1.38;;;;;;;10.41;50.00;98939.78;5067047;28;20049;-66
2021/12/05 11:34:56;;;;;;;4.22;1.50;;;;;;;9.90;51.30;98940.13;5069941;28;20065;-66
2021/12/05 11:37:23;;;;;;;3.05;1.15;;;;;;;9.74;50.77;98934.44;5072100;28;20051;-67
2021/12/05 11:39:51;;;;;;;3.38;1.15;;;;;;;9.98;51.38;98942.00;5062464;28;20056;-67
2021/12/05 11:42:21;;;;;;;2.05;1.08;;;;;;;10.00;51.41;98941.66;5056553;28;20051;-66
2021/12/05 11:44:54;;;;;;;2.75;1.05;;;;;;;10.00;51.02;98942.47;5061851;28;20397;-68
2021/12/05 11:47:24;;;;;;;3.42;1.52;;;;;;;9.94;51.14;98943.84;5054973;28;20140;-67
2021/12/05 11:49:51;;;;;;;2.58;1.10;;;;;;;10.13;51.13;98944.06;5061190;28;20060;-67
2021/12/05 11:52:25;;;;;;;3.05;1.00;;;;;;;10.21;50.85;98947.09;5065556;28;20060;-67
2021/12/05 11:54:53;;;;;;;4.80;1.10;;;;;;;9.51;51.71;98957.16;5052001;28;20529;-68
2021/12/05 11:57:24;;;;;;;3.33;1.00;;;;;;;9.26;52.26;98953.50;5062256;28;20418;-68
2021/12/05 11:59:53;;;;;;;2.08;0.90;;;;;;;8.85;53.89;98951.59;5063919;28;20409;-68
2021/12/05 12:02:25;;;;;;;1.58;1.00;;;;;;;8.96;54.04;98952.00;5065107;28;20052;-67
2021/12/05 12:04:56;;;;;;;2.20;1.00;;;;;;;9.10;53.91;98949.72;5070711;28;20429;-68
2021/12/05 12:07:35;;;;;;;1.63;0.90;;;;;;;9.02;53.64;98948.66;5072239;28;20060;-68
2021/12/05 12:10:11;;;;;;;2.13;0.88;;;;;;;8.82;53.52;98950.31;5060572;28;20071;-68
2021/12/05 12:12:40;;;;;;;3.35;1.20;;;;;;;9.09;53.51;98946.16;5062716;28;20053;-68
2021/12/05 12:15:09;;;;;;;2.28;1.02;;;;;;;9.20;53.06;98949.31;5072207;28;20497;-68
2021/12/05 12:17:38;;;;;;;2.47;1.00;;;;;;;9.43;53.05;98946.09;5066210;28;20056;-68
2021/12/05 12:20:11;;;;;;;1.67;0.80;;;;;;;9.51;51.98;98956.31;5052093;28;20053;-68
2021/12/05 12:22:39;;;;;;;2.70;1.20;;;;;;;9.52;52.02;98966.28;5051799;28;20049;-68
2021/12/05 12:25:11;;;;;;;3.92;1.30;;;;;;;9.51;51.96;98953.53;5051400;28;20060;-68
2021/12/05 12:27:41;;;;;;;2.47;1.00;;;;;;;9.72;51.54;98957.06;5053463;28;20052;-68
2021/12/05 12:30:11;;;;;;;3.03;1.08;;;;;;;9.89;51.32;98952.41;5070658;28;20052;-68
2021/12/05 12:32:45;;;;;;;3.40;1.40;;;;;;;10.09;51.69;98957.03;5069160;28;20044;-68
2021/12/05 12:35:15;;;;;;;3.28;1.38;;;;;;;9.87;51.05;98963.91;5071127;28;20055;-68
2021/12/05 12:37:58;;;;;;;1.83;0.88;;;;;;;9.98;50.35;98960.66;5050843;28;20065;-68
2021/12/05 12:40:37;;;;;;;4.43;1.05;;;;;;;10.07;50.34;98962.16;5050928;28;20072;-67
2021/12/05 12:43:06;;;;;;;2.30;1.15;;;;;;;10.16;49.64;98960.06;5050322;28;20061;-67
2021/12/05 12:45:38;;;;;;;1.65;0.95;;;;;;;10.02;50.28;98962.41;5065426;28;20059;-67
2021/12/05 12:48:16;;;;;;;2.30;1.15;;;;;;;10.20;50.27;98967.72;5069936;28;20056;-67
2021/12/05 12:50:51;;;;;;;2.85;1.20;;;;;;;10.30;49.90;98970.84;5071512;28;20044;-68
2021/12/05 12:53:22;;;;;;;1.90;0.98;;;;;;;10.30;49.82;98967.28;5067818;28;20053;-68
2021/12/05 12:55:56;;;;;;;1.83;1.00;;;;;;;10.09;50.02;98975.72;5051194;28;20053;-67
2021/12/05 12:58:46;;;;;;;1.92;0.90;;;;;;;9.81;50.62;98981.16;5051536;28;20053;-67
2021/12/05 13:01:31;;;;;;;1.88;1.00;;;;;;;10.25;50.49;98973.06;5052652;28;20049;-67
2021/12/05 13:04:30;;;;;;;1.83;0.90;;;;;;;10.02;50.79;98979.09;5055154;28;20053;-67
2021/12/05 13:09:57;;;;;;;2.28;1.00;;;;;;;10.40;50.22;98980.72;5055271;28;20409;-67
2021/12/05 13:10:18;;;;;;;2.67;0.82;;;;;;;10.30;49.16;98984.78;5055083;28;20053;-67
2021/12/05 13:12:50;;;;;;;2.08;1.00;;;;;;;9.90;50.16;98991.00;5054462;28;20052;-67
2021/12/05 13:15:40;;;;;;;2.13;0.90;;;;;;;10.05;49.68;98989.50;5060745;28;20075;-67
2021/12/05 13:18:23;;;;;;;2.20;0.88;;;;;;;9.87;50.54;99000.06;5063111;28;20090;-67
2021/12/05 13:20:58;;;;;;;2.38;1.20;;;;;;;9.87;50.55;98993.66;5059887;28;20049;-67
2021/12/05 13:23:40;;;;;;;1.70;0.80;;;;;;;9.89;50.35;98994.13;5053569;28;20052;-68
2021/12/05 13:26:21;;;;;;;2.75;1.17;;;;;;;9.56;51.39;98995.03;5057868;28;20057;-68
2021/12/05 13:28:51;;;;;;;2.03;1.17;;;;;;;9.19;52.54;99002.44;5057357;28;20052;-66
2021/12/05 13:31:38;;;;;;;1.73;0.80;;;;;;;9.25;51.61;99012.16;5054212;28;20078;-68
2021/12/05 13:34:27;;;;;;;3.05;1.30;;;;;;;9.38;51.60;99013.03;5060253;28;20049;-66
2021/12/05 13:37:20;;;;;;;2.42;1.23;;;;;;;9.24;51.49;99016.09;5053063;28;20056;-62
2021/12/05 13:39:49;;;;;;;1.73;0.90;;;;;;;9.11;51.61;99012.44;5060314;28;20045;-66
2021/12/05 13:42:21;;;;;;;2.22;0.93;;;;;;;9.05;51.89;99022.13;5060234;28;20052;-68
2021/12/05 13:45:16;;;;;;;2.15;1.02;;;;;;;9.14;51.68;99020.13;5071364;28;20045;-67
2021/12/05 13:48:07;;;;;;;2.75;0.95;;;;;;;8.91;52.66;99014.09;5062280;28;20060;-65
2021/12/05 13:50:42;;;;;;;2.97;1.10;;;;;;;8.99;52.44;99024.34;5054526;28;20062;-66
2021/12/05 13:53:23;;;;;;;2.58;1.48;;;;;;;8.90;52.55;99023.56;5068239;28;20059;-69
2021/12/05 13:56:14;;;;;;;2.40;0.93;;;;;;;8.71;53.14;99021.28;5059625;28;20048;-71
2021/12/05 13:58:46;;;;;;;2.30;1.10;;;;;;;8.82;53.36;99021.69;5059695;28;20063;-71
2021/12/05 14:01:20;;;;;;;2.65;0.90;;;;;;;8.86;53.58;99031.78;5055321;28;20053;-71
2021/12/05 14:03:58;;;;;;;1.48;0.80;;;;;;;8.78;53.47;99037.38;5058577;28;20044;-71
2021/12/05 14:06:28;;;;;;;3.05;0.82;;;;;;;8.64;53.70;99038.47;5066496;28;20053;-71
2021/12/05 14:09:00;;;;;;;1.98;1.00;;;;;;;8.81;53.73;99040.31;5062487;28;20044;-71
2021/12/05 14:11:28;;;;;;;2.70;0.95;;;;;;;8.80;54.10;99047.03;5057542;28;20045;-71
2021/12/05 14:13:56;;;;;;;1.98;1.00;;;;;;;8.50;54.36;99047.06;5072353;28;20052;-71
2021/12/05 14:16:31;;;;;;;1.85;0.80;;;;;;;8.76;53.59;99053.56;5067957;28;20049;-71
2021/12/05 14:18:59;;;;;;;3.03;1.67;;;;;;;8.23;58.37;99064.97;5064079;28;20401;-41
2021/12/05 14:21:36;;;;;;;3.60;1.70;;;;;;;8.39;56.14;99062.41;5060352;28;20516;-41
2021/12/05 14:24:05;;;;;;;3.17;1.55;;;;;;;8.41;55.64;99062.94;5060265;28;20056;-70
2021/12/05 14:26:38;;;;;;;3.10;2.07;;;;;;;8.53;54.23;99065.81;5053754;28;20463;-70
2021/12/05 14:29:08;;;;;;;2.47;1.13;;;;;;;8.57;53.67;99077.06;5053754;28;20053;-70
2021/12/05 14:31:47;;;;;;;3.30;1.45;;;;;;;8.64;54.07;99079.28;5055343;28;20520;-70
2021/12/05 14:34:15;;;;;;;7.25;4.90;;;;;;;8.68;53.88;99083.81;5053489;28;20501;-70
2021/12/05 14:36:50;;;;;;;5.68;3.08;;;;;;;8.71;54.57;99091.50;5053019;28;20045;-70
2021/12/05 14:39:23;;;;;;;3.50;1.30;;;;;;;8.70;54.77;99091.84;5053394;28;20049;-70
2021/12/05 14:41:55;;;;;;;1.92;0.90;;;;;;;8.63;53.94;99095.13;5056869;28;20041;-70
2021/12/05 14:44:23;;;;;;;1.75;0.70;;;;;;;8.65;54.24;99089.22;5054146;28;20060;-70
2021/12/05 14:46:56;;;;;;;3.13;1.50;;;;;;;8.58;53.90;99100.06;5058640;28;20056;-70
2021/12/05 14:49:25;;;;;;;1.65;0.85;;;;;;;8.55;54.87;99096.00;5057329;28;20052;-70
2021/12/05 14:51:53;;;;;;;3.67;0.90;;;;;;;8.32;55.32;99114.84;5052579;28;20053;-70
2021/12/05 14:54:28;;;;;;;2.40;1.05;;;;;;;8.42;54.41;99102.56;5068623;28;20052;-70
2021/12/05 14:56:56;;;;;;;1.88;0.95;;;;;;;8.46;54.47;99123.81;5073116;28;20052;-70
2021/12/05 14:59:25;;;;;;;2.90;0.90;;;;;;;8.52;53.97;99114.13;5064260;28;20063;-70
2021/12/05 15:01:56;;;;;;;2.20;1.03;;;;;;;8.44;54.49;99131.63;5072906;28;20044;-70
2021/12/05 15:04:30;;;;;;;2.97;1.48;;;;;;;8.40;55.21;99132.59;5060569;28;20495;-70
2021/12/05 15:06:59;;;;;;;2.45;1.17;;;;;;;8.52;55.62;99144.66;5053100;28;20048;-70
2021/12/05 15:09:34;;;;;;;1.98;1.00;;;;;;;8.60;55.67;99144.94;5063545;28;20076;-70
2021/12/05 15:12:09;;;;;;;3.53;2.42;;;;;;;8.47;55.19;99141.25;5072361;28;20049;-70
2021/12/05 15:14:39;;;;;;;4.97;3.38;;;;;;;8.59;55.15;99152.47;5056318;28;20056;-70
2021/12/05 15:17:11;;;;;;;5.63;3.15;;;;;;;8.65;55.17;99155.84;5052875;28;20049;-70
2021/12/05 15:19:41;;;;;;;3.65;1.55;;;;;;;8.71;55.09;99151.75;5053534;28;20048;-70
2021/12/05 15:22:12;;;;;;;2.13;1.25;;;;;;;8.72;56.06;99150.59;5052717;28;20057;-71
2021/12/05 15:24:41;;;;;;;2.75;1.30;;;;;;;8.72;55.69;99167.25;5057040;28;20520;-70
2021/12/05 15:27:13;;;;;;;;;;;;;;;8.72;56.14;99173.63;5073187;28;20053;-70
2021/12/05 15:29:47;;;;;;;3.08;1.70;;;;;;;8.73;56.75;99174.44;5058533;28;20381;-70
2021/12/05 15:32:19;;;;;;;3.80;1.20;;;;;;;8.76;56.71;99184.03;5052779;28;20052;-70
2021/12/05 15:34:50;;;;;;;2.70;1.52;;;;;;;8.80;57.14;99180.28;5052514;28;20057;-70
2021/12/05 15:37:18;;;;;;;4.00;1.98;;;;;;;8.77;57.30;99180.94;5052648;28;20101;-70
2021/12/05 15:39:49;;;;;;;3.13;1.85;;;;;;;8.75;57.55;99188.78;5053238;28;20059;-70
2021/12/05 15:42:21;;;;;;;2.83;1.70;;;;;;;8.71;57.10;99193.38;5052196;28;20048;-70
2021/12/05 15:44:49;;;;;;;2.88;1.75;;;;;;;8.64;57.61;99199.44;5052252;28;20409;-70
2021/12/05 15:47:20;;;;;;;3.38;1.55;;;;;;;8.64;58.04;99198.66;5057261;28;20048;-70
2021/12/05 15:49:57;;;;;;;5.18;1.70;;;;;;;8.64;57.73;99201.41;5052188;28;20057;-70
2021/12/05 15:52:31;;;;;;;2.22;1.38;;;;;;;8.65;57.68;99209.44;5052093;28;20057;-70
2021/12/05 15:55:00;;;;;;;2.58;1.88;;;;;;;8.62;57.98;99217.59;5052024;28;20064;-70
2021/12/05 15:57:35;;;;;;;4.90;3.33;;;;;;;8.62;58.46;99212.03;5066145;28;20501;-70
2021/12/05 16:00:09;;;;;;;3.10;2.00;;;;;;;8.60;58.41;99215.13;5062830;28;20048;-70
2021/12/05 16:02:36;;;;;;;3.67;2.67;;;;;;;8.60;57.83;99217.91;5072048;28;20055;-70
2021/12/05 16:05:17;;;;;;;5.00;2.40;;;;;;;8.63;57.53;99221.97;5052459;28;20052;-70